sensor_id;sensor_type;location;lat;lon;timestamp;temperature;humidity
23335;DHT22;11839;48.598;8.870;2023-10-13T00:02:03;20.00;94.80
23335;DHT22;11839;48.598;8.870;2023-10-13T00:04:31;20.10;95.10
23335;DHT22;11839;48.598;8.870;2023-10-13T00:06:58;20.00;95.20
23335;DHT22;11839;48.598;8.870;2023-10-13T00:09:27;19.80;95.30
23335;DHT22;11839;48.598;8.870;2023-10-13T00:11:59;19.60;95.90
23335;DHT22;11839;48.598;8.870;2023-10-13T00:14:26;19.60;95.70
23335;DHT22;11839;48.598;8.870;2023-10-13T00:16:59;19.40;96.00
23335;DHT22;11839;48.598;8.870;2023-10-13T00:19:35;19.20;96.40
23335;DHT22;11839;48.598;8.870;2023-10-13T00:22:12;19.30;96.30
23335;DHT22;11839;48.598;8.870;2023-10-13T00:24:42;19.30;96.50
23335;DHT22;11839;48.598;8.870;2023-10-13T00:27:14;19.30;96.60
23335;DHT22;11839;48.598;8.870;2023-10-13T00:29:55;19.20;96.70
23335;DHT22;11839;48.598;8.870;2023-10-13T00:32:36;19.00;96.90
23335;DHT22;11839;48.598;8.870;2023-10-13T00:35:05;18.90;97.10
23335;DHT22;11839;48.598;8.870;2023-10-13T00:37:32;18.80;97.40
23335;DHT22;11839;48.598;8.870;2023-10-13T00:40:08;18.80;97.20
23335;DHT22;11839;48.598;8.870;2023-10-13T00:42:53;18.90;97.50
23335;DHT22;11839;48.598;8.870;2023-10-13T00:45:21;19.00;97.10
23335;DHT22;11839;48.598;8.870;2023-10-13T00:47:47;19.10;97.20
23335;DHT22;11839;48.598;8.870;2023-10-13T00:50:23;19.10;97.50
23335;DHT22;11839;48.598;8.870;2023-10-13T00:52:50;19.20;97.20
23335;DHT22;11839;48.598;8.870;2023-10-13T00:55:18;18.80;97.40
23335;DHT22;11839;48.598;8.870;2023-10-13T00:57:50;18.50;97.70
23335;DHT22;11839;48.598;8.870;2023-10-13T01:00:20;18.60;98.10
23335;DHT22;11839;48.598;8.870;2023-10-13T01:02:52;18.40;98.00
23335;DHT22;11839;48.598;8.870;2023-10-13T01:05:21;18.40;98.20
23335;DHT22;11839;48.598;8.870;2023-10-13T01:07:49;18.40;98.30
23335;DHT22;11839;48.598;8.870;2023-10-13T01:10:18;18.50;98.20
23335;DHT22;11839;48.598;8.870;2023-10-13T01:12:45;18.60;98.40
23335;DHT22;11839;48.598;8.870;2023-10-13T01:15:13;18.40;98.30
23335;DHT22;11839;48.598;8.870;2023-10-13T01:17:45;18.40;98.20
23335;DHT22;11839;48.598;8.870;2023-10-13T01:20:12;18.30;97.40
23335;DHT22;11839;48.598;8.870;2023-10-13T01:22:45;18.50;98.00
23335;DHT22;11839;48.598;8.870;2023-10-13T01:25:22;18.60;97.70
23335;DHT22;11839;48.598;8.870;2023-10-13T01:27:51;18.50;97.80
23335;DHT22;11839;48.598;8.870;2023-10-13T01:30:18;18.50;97.90
23335;DHT22;11839;48.598;8.870;2023-10-13T01:32:48;18.40;97.70
23335;DHT22;11839;48.598;8.870;2023-10-13T01:35:16;18.20;98.30
23335;DHT22;11839;48.598;8.870;2023-10-13T01:37:44;18.40;98.20
23335;DHT22;11839;48.598;8.870;2023-10-13T01:40:11;18.20;98.40
23335;DHT22;11839;48.598;8.870;2023-10-13T01:42:39;18.10;98.50
23335;DHT22;11839;48.598;8.870;2023-10-13T01:45:06;18.00;98.60
23335;DHT22;11839;48.598;8.870;2023-10-13T01:47:32;18.00;98.40
23335;DHT22;11839;48.598;8.870;2023-10-13T01:49:59;18.00;98.90
23335;DHT22;11839;48.598;8.870;2023-10-13T01:52:32;17.80;99.00
23335;DHT22;11839;48.598;8.870;2023-10-13T01:54:59;17.90;99.10
23335;DHT22;11839;48.598;8.870;2023-10-13T01:57:26;17.80;99.10
23335;DHT22;11839;48.598;8.870;2023-10-13T01:59:55;18.00;99.40
23335;DHT22;11839;48.598;8.870;2023-10-13T02:02:21;17.70;99.50
23335;DHT22;11839;48.598;8.870;2023-10-13T02:04:54;17.60;99.50
23335;DHT22;11839;48.598;8.870;2023-10-13T02:07:22;17.40;99.90
23335;DHT22;11839;48.598;8.870;2023-10-13T02:09:55;17.40;99.90
23335;DHT22;11839;48.598;8.870;2023-10-13T02:12:21;17.30;99.90
23335;DHT22;11839;48.598;8.870;2023-10-13T02:14:51;17.00;99.90
23335;DHT22;11839;48.598;8.870;2023-10-13T02:17:18;17.10;99.90
23335;DHT22;11839;48.598;8.870;2023-10-13T02:19:48;16.80;99.90
23335;DHT22;11839;48.598;8.870;2023-10-13T02:22:15;16.90;99.90
23335;DHT22;11839;48.598;8.870;2023-10-13T02:24:53;17.10;99.90
23335;DHT22;11839;48.598;8.870;2023-10-13T02:27:19;17.40;99.90
23335;DHT22;11839;48.598;8.870;2023-10-13T02:29:49;17.10;99.90
23335;DHT22;11839;48.598;8.870;2023-10-13T02:32:15;16.60;99.90
23335;DHT22;11839;48.598;8.870;2023-10-13T02:34:46;16.90;99.90
23335;DHT22;11839;48.598;8.870;2023-10-13T02:37:13;16.80;99.90
23335;DHT22;11839;48.598;8.870;2023-10-13T02:39:39;16.80;99.90
23335;DHT22;11839;48.598;8.870;2023-10-13T02:42:07;16.70;99.90
23335;DHT22;11839;48.598;8.870;2023-10-13T02:44:33;16.60;99.90
23335;DHT22;11839;48.598;8.870;2023-10-13T02:47:02;16.60;99.90
23335;DHT22;11839;48.598;8.870;2023-10-13T02:49:31;16.50;99.90
23335;DHT22;11839;48.598;8.870;2023-10-13T02:52:01;16.30;99.90
23335;DHT22;11839;48.598;8.870;2023-10-13T02:54:32;16.20;99.90
23335;DHT22;11839;48.598;8.870;2023-10-13T02:57:05;16.50;99.90
23335;DHT22;11839;48.598;8.870;2023-10-13T02:59:32;16.60;99.90
23335;DHT22;11839;48.598;8.870;2023-10-13T03:02:06;16.50;99.90
23335;DHT22;11839;48.598;8.870;2023-10-13T03:04:43;16.20;99.90
23335;DHT22;11839;48.598;8.870;2023-10-13T03:07:11;16.30;99.90
23335;DHT22;11839;48.598;8.870;2023-10-13T03:09:41;16.10;99.90
23335;DHT22;11839;48.598;8.870;2023-10-13T03:12:15;16.20;99.90
23335;DHT22;11839;48.598;8.870;2023-10-13T03:14:42;16.10;99.90
23335;DHT22;11839;48.598;8.870;2023-10-13T03:17:08;16.20;99.90
23335;DHT22;11839;48.598;8.870;2023-10-13T03:19:42;16.30;99.90
23335;DHT22;11839;48.598;8.870;2023-10-13T03:22:13;16.00;99.90
23335;DHT22;11839;48.598;8.870;2023-10-13T03:24:42;16.20;99.90
23335;DHT22;11839;48.598;8.870;2023-10-13T03:27:10;16.40;99.90
23335;DHT22;11839;48.598;8.870;2023-10-13T03:29:41;16.30;99.90
23335;DHT22;11839;48.598;8.870;2023-10-13T03:32:09;16.10;99.90
23335;DHT22;11839;48.598;8.870;2023-10-13T03:34:38;15.90;99.90
23335;DHT22;11839;48.598;8.870;2023-10-13T03:37:17;16.10;99.90
23335;DHT22;11839;48.598;8.870;2023-10-13T03:39:54;16.00;99.90
23335;DHT22;11839;48.598;8.870;2023-10-13T03:42:21;16.10;99.90
23335;DHT22;11839;48.598;8.870;2023-10-13T03:44:47;15.90;99.90
23335;DHT22;11839;48.598;8.870;2023-10-13T03:47:15;15.90;99.90
23335;DHT22;11839;48.598;8.870;2023-10-13T03:49:52;16.10;99.90
23335;DHT22;11839;48.598;8.870;2023-10-13T03:52:40;16.10;99.90
23335;DHT22;11839;48.598;8.870;2023-10-13T03:55:07;16.00;99.90
23335;DHT22;11839;48.598;8.870;2023-10-13T03:57:42;16.00;99.90
23335;DHT22;11839;48.598;8.870;2023-10-13T04:00:12;15.80;99.90
23335;DHT22;11839;48.598;8.870;2023-10-13T04:02:47;15.90;99.90
23335;DHT22;11839;48.598;8.870;2023-10-13T04:05:20;15.80;99.90
23335;DHT22;11839;48.598;8.870;2023-10-13T04:08:06;15.90;99.90
23335;DHT22;11839;48.598;8.870;2023-10-13T04:10:51;15.80;99.90
23335;DHT22;11839;48.598;8.870;2023-10-13T04:13:36;15.70;99.90
23335;DHT22;11839;48.598;8.870;2023-10-13T04:16:20;15.80;99.90
23335;DHT22;11839;48.598;8.870;2023-10-13T04:19:03;15.70;99.90
23335;DHT22;11839;48.598;8.870;2023-10-13T04:21:46;15.70;99.90
23335;DHT22;11839;48.598;8.870;2023-10-13T04:24:26;15.60;99.90
23335;DHT22;11839;48.598;8.870;2023-10-13T04:27:07;15.40;99.90
23335;DHT22;11839;48.598;8.870;2023-10-13T04:29:55;15.70;99.90
23335;DHT22;11839;48.598;8.870;2023-10-13T04:32:36;15.70;99.90
23335;DHT22;11839;48.598;8.870;2023-10-13T04:35:07;15.90;99.90
23335;DHT22;11839;48.598;8.870;2023-10-13T04:37:43;15.90;99.90
23335;DHT22;11839;48.598;8.870;2023-10-13T04:40:27;15.80;99.90
23335;DHT22;11839;48.598;8.870;2023-10-13T04:43:00;15.70;99.90
23335;DHT22;11839;48.598;8.870;2023-10-13T04:45:31;15.70;99.90
23335;DHT22;11839;48.598;8.870;2023-10-13T04:48:15;15.50;99.90
23335;DHT22;11839;48.598;8.870;2023-10-13T04:51:00;15.50;99.90
23335;DHT22;11839;48.598;8.870;2023-10-13T04:53:44;15.40;99.90
23335;DHT22;11839;48.598;8.870;2023-10-13T04:56:32;15.40;99.90
23335;DHT22;11839;48.598;8.870;2023-10-13T04:59:33;15.70;99.90
23335;DHT22;11839;48.598;8.870;2023-10-13T05:02:23;16.00;99.90
23335;DHT22;11839;48.598;8.870;2023-10-13T05:05:20;15.80;99.90
23335;DHT22;11839;48.598;8.870;2023-10-13T05:08:04;15.80;99.90
23335;DHT22;11839;48.598;8.870;2023-10-13T05:10:48;15.90;99.90
23335;DHT22;11839;48.598;8.870;2023-10-13T05:13:32;15.70;99.90
23335;DHT22;11839;48.598;8.870;2023-10-13T05:16:18;15.70;99.90
23335;DHT22;11839;48.598;8.870;2023-10-13T05:19:02;15.80;99.90
23335;DHT22;11839;48.598;8.870;2023-10-13T05:21:46;15.60;99.90
23335;DHT22;11839;48.598;8.870;2023-10-13T05:24:30;15.90;99.90
23335;DHT22;11839;48.598;8.870;2023-10-13T05:27:14;15.90;99.90
23335;DHT22;11839;48.598;8.870;2023-10-13T05:29:58;15.90;99.90
23335;DHT22;11839;48.598;8.870;2023-10-13T05:32:43;15.90;99.90
23335;DHT22;11839;48.598;8.870;2023-10-13T05:35:30;15.70;99.90
23335;DHT22;11839;48.598;8.870;2023-10-13T05:38:15;15.90;99.90
23335;DHT22;11839;48.598;8.870;2023-10-13T05:40:57;15.80;99.90
23335;DHT22;11839;48.598;8.870;2023-10-13T05:43:42;15.70;99.90
23335;DHT22;11839;48.598;8.870;2023-10-13T05:46:27;15.90;99.90
23335;DHT22;11839;48.598;8.870;2023-10-13T05:49:28;15.90;99.90
23335;DHT22;11839;48.598;8.870;2023-10-13T05:52:12;16.30;99.90
23335;DHT22;11839;48.598;8.870;2023-10-13T05:55:01;16.70;99.90
23335;DHT22;11839;48.598;8.870;2023-10-13T05:57:46;17.10;99.90
23335;DHT22;11839;48.598;8.870;2023-10-13T06:00:30;17.40;99.90
23335;DHT22;11839;48.598;8.870;2023-10-13T06:03:14;17.60;99.90
23335;DHT22;11839;48.598;8.870;2023-10-13T06:06:00;17.70;99.90
23335;DHT22;11839;48.598;8.870;2023-10-13T06:08:44;17.80;99.90
23335;DHT22;11839;48.598;8.870;2023-10-13T06:11:28;18.00;99.90
23335;DHT22;11839;48.598;8.870;2023-10-13T06:14:12;18.20;99.90
23335;DHT22;11839;48.598;8.870;2023-10-13T06:16:56;18.30;99.90
23335;DHT22;11839;48.598;8.870;2023-10-13T06:19:41;18.20;99.90
23335;DHT22;11839;48.598;8.870;2023-10-13T06:22:26;18.20;99.90
23335;DHT22;11839;48.598;8.870;2023-10-13T06:25:09;18.20;99.90
23335;DHT22;11839;48.598;8.870;2023-10-13T06:28:07;18.20;99.90
23335;DHT22;11839;48.598;8.870;2023-10-13T06:30:55;18.40;99.90
23335;DHT22;11839;48.598;8.870;2023-10-13T06:33:23;18.40;99.90
23335;DHT22;11839;48.598;8.870;2023-10-13T06:35:55;18.60;99.90
23335;DHT22;11839;48.598;8.870;2023-10-13T06:38:24;18.50;99.90
23335;DHT22;11839;48.598;8.870;2023-10-13T06:40:56;18.40;99.80
23335;DHT22;11839;48.598;8.870;2023-10-13T06:43:23;18.50;99.90
23335;DHT22;11839;48.598;8.870;2023-10-13T06:45:50;18.60;99.90
23335;DHT22;11839;48.598;8.870;2023-10-13T06:48:23;18.50;99.90
23335;DHT22;11839;48.598;8.870;2023-10-13T06:50:50;18.40;99.90
23335;DHT22;11839;48.598;8.870;2023-10-13T06:53:18;18.40;99.90
23335;DHT22;11839;48.598;8.870;2023-10-13T06:55:46;18.50;99.90
23335;DHT22;11839;48.598;8.870;2023-10-13T06:58:15;18.60;99.90
23335;DHT22;11839;48.598;8.870;2023-10-13T07:00:43;18.60;99.90
23335;DHT22;11839;48.598;8.870;2023-10-13T07:03:18;18.70;99.80
23335;DHT22;11839;48.598;8.870;2023-10-13T07:05:45;19.00;99.80
23335;DHT22;11839;48.598;8.870;2023-10-13T07:08:15;18.90;99.70
23335;DHT22;11839;48.598;8.870;2023-10-13T07:10:50;19.00;99.60
23335;DHT22;11839;48.598;8.870;2023-10-13T07:13:27;19.10;99.50
23335;DHT22;11839;48.598;8.870;2023-10-13T07:15:54;19.10;99.70
23335;DHT22;11839;48.598;8.870;2023-10-13T07:18:25;19.30;99.70
23335;DHT22;11839;48.598;8.870;2023-10-13T07:20:58;19.40;99.40
23335;DHT22;11839;48.598;8.870;2023-10-13T07:23:25;19.60;99.30
23335;DHT22;11839;48.598;8.870;2023-10-13T07:25:55;19.60;98.90
23335;DHT22;11839;48.598;8.870;2023-10-13T07:28:28;19.40;99.20
23335;DHT22;11839;48.598;8.870;2023-10-13T07:30:56;19.70;99.20
23335;DHT22;11839;48.598;8.870;2023-10-13T07:33:37;19.80;99.20
23335;DHT22;11839;48.598;8.870;2023-10-13T07:36:07;20.00;98.60
23335;DHT22;11839;48.598;8.870;2023-10-13T07:38:42;20.00;98.60
23335;DHT22;11839;48.598;8.870;2023-10-13T07:41:10;20.30;98.60
23335;DHT22;11839;48.598;8.870;2023-10-13T07:43:41;20.30;98.10
23335;DHT22;11839;48.598;8.870;2023-10-13T07:46:09;20.40;98.10
23335;DHT22;11839;48.598;8.870;2023-10-13T07:48:36;20.60;97.90
23335;DHT22;11839;48.598;8.870;2023-10-13T07:51:05;20.70;97.90
23335;DHT22;11839;48.598;8.870;2023-10-13T07:53:35;20.90;97.80
23335;DHT22;11839;48.598;8.870;2023-10-13T07:56:04;20.90;97.60
23335;DHT22;11839;48.598;8.870;2023-10-13T07:58:35;21.10;97.70
23335;DHT22;11839;48.598;8.870;2023-10-13T08:01:13;20.90;97.50
23335;DHT22;11839;48.598;8.870;2023-10-13T08:03:44;21.30;97.60
23335;DHT22;11839;48.598;8.870;2023-10-13T08:06:11;21.40;96.70
23335;DHT22;11839;48.598;8.870;2023-10-13T08:08:51;21.60;95.90
23335;DHT22;11839;48.598;8.870;2023-10-13T08:11:22;21.60;95.70
23335;DHT22;11839;48.598;8.870;2023-10-13T08:13:53;21.60;95.50
23335;DHT22;11839;48.598;8.870;2023-10-13T08:16:21;21.70;95.10
23335;DHT22;11839;48.598;8.870;2023-10-13T08:18:49;21.80;95.00
23335;DHT22;11839;48.598;8.870;2023-10-13T08:21:16;21.80;95.40
23335;DHT22;11839;48.598;8.870;2023-10-13T08:23:48;21.70;96.20
23335;DHT22;11839;48.598;8.870;2023-10-13T08:26:29;22.00;95.70
23335;DHT22;11839;48.598;8.870;2023-10-13T08:29:22;22.00;95.30
23335;DHT22;11839;48.598;8.870;2023-10-13T08:32:06;22.20;94.80
23335;DHT22;11839;48.598;8.870;2023-10-13T08:35:02;22.40;94.90
23335;DHT22;11839;48.598;8.870;2023-10-13T08:37:48;22.80;95.10
23335;DHT22;11839;48.598;8.870;2023-10-13T08:40:27;22.90;94.90
23335;DHT22;11839;48.598;8.870;2023-10-13T08:43:12;22.90;94.80
23335;DHT22;11839;48.598;8.870;2023-10-13T08:45:41;23.00;94.90
23335;DHT22;11839;48.598;8.870;2023-10-13T08:48:20;23.00;95.20
23335;DHT22;11839;48.598;8.870;2023-10-13T08:50:52;23.00;95.20
23335;DHT22;11839;48.598;8.870;2023-10-13T08:53:22;23.00;94.50
23335;DHT22;11839;48.598;8.870;2023-10-13T08:55:57;23.10;94.10
23335;DHT22;11839;48.598;8.870;2023-10-13T08:58:35;23.10;93.30
23335;DHT22;11839;48.598;8.870;2023-10-13T09:01:23;23.20;93.20
23335;DHT22;11839;48.598;8.870;2023-10-13T09:04:05;23.10;93.10
23335;DHT22;11839;48.598;8.870;2023-10-13T09:06:49;23.00;92.80
23335;DHT22;11839;48.598;8.870;2023-10-13T09:09:43;23.20;92.80
23335;DHT22;11839;48.598;8.870;2023-10-13T09:12:25;23.30;92.30
23335;DHT22;11839;48.598;8.870;2023-10-13T09:15:03;23.30;92.50
23335;DHT22;11839;48.598;8.870;2023-10-13T09:17:40;23.40;92.40
23335;DHT22;11839;48.598;8.870;2023-10-13T09:20:14;23.80;92.20
23335;DHT22;11839;48.598;8.870;2023-10-13T09:22:57;24.20;91.90
23335;DHT22;11839;48.598;8.870;2023-10-13T09:25:34;24.40;91.30
23335;DHT22;11839;48.598;8.870;2023-10-13T09:28:02;24.40;91.40
23335;DHT22;11839;48.598;8.870;2023-10-13T09:30:42;24.50;91.20
23335;DHT22;11839;48.598;8.870;2023-10-13T09:33:10;24.40;91.40
23335;DHT22;11839;48.598;8.870;2023-10-13T09:35:44;24.50;90.90
23335;DHT22;11839;48.598;8.870;2023-10-13T09:38:15;24.80;90.00
23335;DHT22;11839;48.598;8.870;2023-10-13T09:40:41;24.80;89.60
23335;DHT22;11839;48.598;8.870;2023-10-13T09:43:16;25.00;90.10
23335;DHT22;11839;48.598;8.870;2023-10-13T09:45:46;25.20;90.20
23335;DHT22;11839;48.598;8.870;2023-10-13T09:48:32;25.30;88.80
23335;DHT22;11839;48.598;8.870;2023-10-13T09:51:00;25.40;87.90
23335;DHT22;11839;48.598;8.870;2023-10-13T09:53:27;25.30;87.80
23335;DHT22;11839;48.598;8.870;2023-10-13T09:56:03;25.50;88.50
23335;DHT22;11839;48.598;8.870;2023-10-13T09:58:48;25.50;88.60
23335;DHT22;11839;48.598;8.870;2023-10-13T10:01:22;25.80;88.00
23335;DHT22;11839;48.598;8.870;2023-10-13T10:04:08;25.90;87.70
23335;DHT22;11839;48.598;8.870;2023-10-13T10:06:35;25.90;86.90
23335;DHT22;11839;48.598;8.870;2023-10-13T10:09:10;25.90;86.00
23335;DHT22;11839;48.598;8.870;2023-10-13T10:12:09;25.90;85.80
23335;DHT22;11839;48.598;8.870;2023-10-13T10:15:07;26.00;86.60
23335;DHT22;11839;48.598;8.870;2023-10-13T10:17:40;26.20;85.20
23335;DHT22;11839;48.598;8.870;2023-10-13T10:20:09;26.30;86.10
23335;DHT22;11839;48.598;8.870;2023-10-13T10:22:55;26.80;85.70
23335;DHT22;11839;48.598;8.870;2023-10-13T10:25:29;26.80;85.00
23335;DHT22;11839;48.598;8.870;2023-10-13T10:28:01;27.10;84.60
23335;DHT22;11839;48.598;8.870;2023-10-13T10:30:32;27.00;83.40
23335;DHT22;11839;48.598;8.870;2023-10-13T10:33:00;27.00;83.90
23335;DHT22;11839;48.598;8.870;2023-10-13T10:35:35;27.40;84.50
23335;DHT22;11839;48.598;8.870;2023-10-13T10:38:09;27.60;80.50
23335;DHT22;11839;48.598;8.870;2023-10-13T10:40:52;27.40;80.20
23335;DHT22;11839;48.598;8.870;2023-10-13T10:43:23;27.70;78.90
23335;DHT22;11839;48.598;8.870;2023-10-13T10:45:52;27.90;79.80
23335;DHT22;11839;48.598;8.870;2023-10-13T10:48:25;27.80;78.90
23335;DHT22;11839;48.598;8.870;2023-10-13T10:50:58;27.60;78.30
23335;DHT22;11839;48.598;8.870;2023-10-13T10:53:33;27.60;79.60
23335;DHT22;11839;48.598;8.870;2023-10-13T10:56:09;27.80;78.90
23335;DHT22;11839;48.598;8.870;2023-10-13T10:58:47;27.70;78.80
23335;DHT22;11839;48.598;8.870;2023-10-13T11:01:14;27.40;78.60
23335;DHT22;11839;48.598;8.870;2023-10-13T11:03:53;27.30;79.20
23335;DHT22;11839;48.598;8.870;2023-10-13T11:06:24;27.50;79.70
23335;DHT22;11839;48.598;8.870;2023-10-13T11:09:04;27.00;79.40
23335;DHT22;11839;48.598;8.870;2023-10-13T11:11:44;27.10;79.90
23335;DHT22;11839;48.598;8.870;2023-10-13T11:14:20;27.40;78.60
23335;DHT22;11839;48.598;8.870;2023-10-13T11:16:49;27.40;78.60
23335;DHT22;11839;48.598;8.870;2023-10-13T11:19:20;27.60;78.70
23335;DHT22;11839;48.598;8.870;2023-10-13T11:21:53;27.60;77.30
23335;DHT22;11839;48.598;8.870;2023-10-13T11:24:21;27.70;77.10
23335;DHT22;11839;48.598;8.870;2023-10-13T11:26:48;27.80;77.60
23335;DHT22;11839;48.598;8.870;2023-10-13T11:29:30;28.00;77.00
23335;DHT22;11839;48.598;8.870;2023-10-13T11:31:59;27.90;76.90
23335;DHT22;11839;48.598;8.870;2023-10-13T11:34:26;28.00;77.80
23335;DHT22;11839;48.598;8.870;2023-10-13T11:37:06;28.10;76.20
23335;DHT22;11839;48.598;8.870;2023-10-13T11:39:47;28.10;75.80
23335;DHT22;11839;48.598;8.870;2023-10-13T11:42:13;27.80;74.30
23335;DHT22;11839;48.598;8.870;2023-10-13T11:44:42;28.20;74.90
23335;DHT22;11839;48.598;8.870;2023-10-13T11:47:09;28.50;74.20
23335;DHT22;11839;48.598;8.870;2023-10-13T11:49:58;28.60;73.20
23335;DHT22;11839;48.598;8.870;2023-10-13T11:52:26;28.60;72.60
23335;DHT22;11839;48.598;8.870;2023-10-13T11:54:55;28.70;72.60
23335;DHT22;11839;48.598;8.870;2023-10-13T11:57:22;28.90;72.20
23335;DHT22;11839;48.598;8.870;2023-10-13T11:59:49;29.00;71.70
23335;DHT22;11839;48.598;8.870;2023-10-13T12:02:21;29.10;71.60
23335;DHT22;11839;48.598;8.870;2023-10-13T12:05:08;29.10;71.20
23335;DHT22;11839;48.598;8.870;2023-10-13T12:07:44;29.00;71.70
23335;DHT22;11839;48.598;8.870;2023-10-13T12:10:14;29.60;70.80
23335;DHT22;11839;48.598;8.870;2023-10-13T12:12:46;29.50;70.60
23335;DHT22;11839;48.598;8.870;2023-10-13T12:15:19;29.20;69.20
23335;DHT22;11839;48.598;8.870;2023-10-13T12:18:02;29.30;70.60
23335;DHT22;11839;48.598;8.870;2023-10-13T12:20:29;29.00;71.40
23335;DHT22;11839;48.598;8.870;2023-10-13T12:23:02;29.40;67.10
23335;DHT22;11839;48.598;8.870;2023-10-13T12:25:43;29.20;67.70
23335;DHT22;11839;48.598;8.870;2023-10-13T12:28:32;29.10;65.70
23335;DHT22;11839;48.598;8.870;2023-10-13T12:31:06;29.20;66.40
23335;DHT22;11839;48.598;8.870;2023-10-13T12:33:36;29.30;66.60
23335;DHT22;11839;48.598;8.870;2023-10-13T12:36:06;29.40;65.80
23335;DHT22;11839;48.598;8.870;2023-10-13T12:38:42;29.50;65.60
23335;DHT22;11839;48.598;8.870;2023-10-13T12:41:47;29.50;64.40
23335;DHT22;11839;48.598;8.870;2023-10-13T12:44:32;29.50;63.90
23335;DHT22;11839;48.598;8.870;2023-10-13T12:47:16;29.30;64.50
23335;DHT22;11839;48.598;8.870;2023-10-13T12:50:00;29.30;64.20
23335;DHT22;11839;48.598;8.870;2023-10-13T12:52:39;29.30;63.70
23335;DHT22;11839;48.598;8.870;2023-10-13T12:55:12;29.50;65.90
23335;DHT22;11839;48.598;8.870;2023-10-13T12:57:40;29.50;64.40
23335;DHT22;11839;48.598;8.870;2023-10-13T13:00:11;29.40;64.20
23335;DHT22;11839;48.598;8.870;2023-10-13T13:02:49;29.40;64.00
23335;DHT22;11839;48.598;8.870;2023-10-13T13:05:18;29.50;63.90
23335;DHT22;11839;48.598;8.870;2023-10-13T13:07:48;29.50;62.70
23335;DHT22;11839;48.598;8.870;2023-10-13T13:10:19;29.30;62.30
23335;DHT22;11839;48.598;8.870;2023-10-13T13:12:54;29.50;62.90
23335;DHT22;11839;48.598;8.870;2023-10-13T13:15:21;29.80;62.40
23335;DHT22;11839;48.598;8.870;2023-10-13T13:17:49;29.80;61.90
23335;DHT22;11839;48.598;8.870;2023-10-13T13:20:16;29.70;61.10
23335;DHT22;11839;48.598;8.870;2023-10-13T13:22:53;29.50;61.00
23335;DHT22;11839;48.598;8.870;2023-10-13T13:25:22;29.50;61.90
23335;DHT22;11839;48.598;8.870;2023-10-13T13:27:55;29.70;61.50
23335;DHT22;11839;48.598;8.870;2023-10-13T13:30:25;29.80;60.90
23335;DHT22;11839;48.598;8.870;2023-10-13T13:32:56;29.70;61.10
23335;DHT22;11839;48.598;8.870;2023-10-13T13:35:29;29.60;61.10
23335;DHT22;11839;48.598;8.870;2023-10-13T13:38:00;29.40;60.90
23335;DHT22;11839;48.598;8.870;2023-10-13T13:40:37;29.40;61.10
23335;DHT22;11839;48.598;8.870;2023-10-13T13:43:04;29.40;61.00
23335;DHT22;11839;48.598;8.870;2023-10-13T13:45:32;29.40;61.00
23335;DHT22;11839;48.598;8.870;2023-10-13T13:48:00;29.50;60.30
23335;DHT22;11839;48.598;8.870;2023-10-13T13:50:33;29.40;60.30
23335;DHT22;11839;48.598;8.870;2023-10-13T13:53:06;29.40;60.90
23335;DHT22;11839;48.598;8.870;2023-10-13T13:55:36;29.50;60.80
23335;DHT22;11839;48.598;8.870;2023-10-13T13:58:05;29.50;60.00
23335;DHT22;11839;48.598;8.870;2023-10-13T14:00:34;29.50;60.50
23335;DHT22;11839;48.598;8.870;2023-10-13T14:03:04;29.40;59.60
23335;DHT22;11839;48.598;8.870;2023-10-13T14:05:40;29.50;59.30
23335;DHT22;11839;48.598;8.870;2023-10-13T14:08:07;29.40;59.20
23335;DHT22;11839;48.598;8.870;2023-10-13T14:10:38;29.30;59.00
23335;DHT22;11839;48.598;8.870;2023-10-13T14:13:19;29.30;58.10
23335;DHT22;11839;48.598;8.870;2023-10-13T14:15:48;29.20;57.60
23335;DHT22;11839;48.598;8.870;2023-10-13T14:18:21;29.20;57.40
23335;DHT22;11839;48.598;8.870;2023-10-13T14:20:55;29.20;57.70
23335;DHT22;11839;48.598;8.870;2023-10-13T14:23:22;29.30;57.00
23335;DHT22;11839;48.598;8.870;2023-10-13T14:25:52;29.30;56.80
23335;DHT22;11839;48.598;8.870;2023-10-13T14:28:21;29.30;57.70
23335;DHT22;11839;48.598;8.870;2023-10-13T14:30:47;29.30;57.70
23335;DHT22;11839;48.598;8.870;2023-10-13T14:33:14;29.30;58.00
23335;DHT22;11839;48.598;8.870;2023-10-13T14:35:41;29.30;58.50
23335;DHT22;11839;48.598;8.870;2023-10-13T14:38:12;29.30;57.80
23335;DHT22;11839;48.598;8.870;2023-10-13T14:40:39;29.40;57.20
23335;DHT22;11839;48.598;8.870;2023-10-13T14:43:07;29.50;57.00
23335;DHT22;11839;48.598;8.870;2023-10-13T14:45:35;29.60;57.10
23335;DHT22;11839;48.598;8.870;2023-10-13T14:48:02;29.80;57.60
23335;DHT22;11839;48.598;8.870;2023-10-13T14:50:31;29.60;57.30
23335;DHT22;11839;48.598;8.870;2023-10-13T14:52:59;29.40;57.20
23335;DHT22;11839;48.598;8.870;2023-10-13T14:55:25;29.30;57.30
23335;DHT22;11839;48.598;8.870;2023-10-13T14:58:03;29.30;57.80
23335;DHT22;11839;48.598;8.870;2023-10-13T15:00:34;29.40;57.60
23335;DHT22;11839;48.598;8.870;2023-10-13T15:03:02;29.30;57.00
23335;DHT22;11839;48.598;8.870;2023-10-13T15:05:32;29.30;56.50
23335;DHT22;11839;48.598;8.870;2023-10-13T15:08:01;29.10;56.00
23335;DHT22;11839;48.598;8.870;2023-10-13T15:10:29;28.90;55.80
23335;DHT22;11839;48.598;8.870;2023-10-13T15:12:55;28.90;55.30
23335;DHT22;11839;48.598;8.870;2023-10-13T15:15:24;28.90;55.40
23335;DHT22;11839;48.598;8.870;2023-10-13T15:17:52;28.60;55.30
23335;DHT22;11839;48.598;8.870;2023-10-13T15:20:20;28.70;55.60
23335;DHT22;11839;48.598;8.870;2023-10-13T15:22:47;28.80;55.40
23335;DHT22;11839;48.598;8.870;2023-10-13T15:25:14;28.90;55.00
23335;DHT22;11839;48.598;8.870;2023-10-13T15:27:46;28.80;55.00
23335;DHT22;11839;48.598;8.870;2023-10-13T15:30:21;28.90;54.90
23335;DHT22;11839;48.598;8.870;2023-10-13T15:32:49;29.00;55.30
23335;DHT22;11839;48.598;8.870;2023-10-13T15:35:18;29.00;54.90
23335;DHT22;11839;48.598;8.870;2023-10-13T15:37:45;29.10;55.10
23335;DHT22;11839;48.598;8.870;2023-10-13T15:40:14;29.00;55.20
23335;DHT22;11839;48.598;8.870;2023-10-13T15:42:42;28.70;55.80
23335;DHT22;11839;48.598;8.870;2023-10-13T15:45:11;28.50;56.20
23335;DHT22;11839;48.598;8.870;2023-10-13T15:47:50;28.60;55.90
23335;DHT22;11839;48.598;8.870;2023-10-13T15:50:19;28.40;56.60
23335;DHT22;11839;48.598;8.870;2023-10-13T15:52:46;28.30;57.50
23335;DHT22;11839;48.598;8.870;2023-10-13T15:55:14;28.40;57.40
23335;DHT22;11839;48.598;8.870;2023-10-13T15:57:43;28.50;57.10
23335;DHT22;11839;48.598;8.870;2023-10-13T16:00:11;28.10;57.30
23335;DHT22;11839;48.598;8.870;2023-10-13T16:02:51;28.00;57.20
23335;DHT22;11839;48.598;8.870;2023-10-13T16:05:28;27.90;58.00
23335;DHT22;11839;48.598;8.870;2023-10-13T16:07:54;27.90;58.30
23335;DHT22;11839;48.598;8.870;2023-10-13T16:10:22;27.90;58.00
23335;DHT22;11839;48.598;8.870;2023-10-13T16:12:49;27.90;58.40